Hlavní strana
METAR-TAF:

METAR-TAF

Letiště :

Tromsø, Norsko

zeměpisná šířka: 69-41N, zeměpisná délka: 018-55E, výška: 1 m

Aktuální stav počasí

Zpráva byla vytvořena před 19 minutami, v 13:20 UTC
Severoseverovýchodní vítr 13 kt
Teplota -3°C
Vlhkost vzduchu 86%
Tlak 994 hPa
Viditelnost: 6000 m
slabé sněhové přeháňky

METAR: ENTC 291320Z 02013KT 6000 -SHSN VV015 M03/M05 Q0994 TEMPO 0800 SHSN VV008 RMK WIND 2600FT /////KT

Čas: 14:39 (13:39 UTC)

Předpověď počasí

Předpověď platná od 29 v 12 UTC do 01 v 12 UTC
Severní vítr 10 kt
Viditelnost 10 km a více
Skoro jasno ve výšce 1200 ft
Oblačno až skoro zataženo ve výšce 2500 ft
Dočasný
od 29 v 12 UTC do 01 v 12 UTC
vítr z různých směrů 5 kt
Viditelnost: 0800 m
ve výšce 600 ft
sněhové přeháňky
Změna
od 01 v 00 UTC do 01 v 03 UTC
Jižní vítr 12 kt

TAF: ENTC 2912/0112 01010KT 9999 FEW012 BKN025 TEMPO 2912/0112 VRB05KT 0800 SHSN VV006 BECMG 0100/0103 19012KT

Stav a předpovědi počasí z více než 4 000 letišť (zprávy METAR a TAF).

Červené a žluté tečky na mapě představují dostupné meteorologické stanice.

Když kurzor umístíte na tečku, zobrazí se název stanice.

Pak kliknutím zobrazíte stav a předpověď počasí.

Chcete-li změnit mapu, kliknutím na zelené tlačítko se znaménkem +mapu přiblížíte, kliknutím na zelené tlačítko se znaménkem – mapu oddálíte a kliknutím na zelené šipky přejdete na sousední mapy.


METAR-TAF: